Huvudsida
METAR-TAF:

METAR-TAF

Flygplatser :

Togiak Village, Alaska, USA

latitud: 59-03N, longitud: 160-24W, höjd: 6 m

Aktuellt väderrapport

Denna rapport gjordes för 25 minuter sedan, klockan 17:56 UTC
Vind 3 kt från sydost
Temperatur 4°C
Fuktighet 100%
Tryck 1026 hPa
Sikt: 16.1 km
Brutna moln på en höjd av 400 ft

METAR: PATG 141756Z AUTO 13003KT 10SM BKN004 04/04 A3029 RMK AO2 SLP258 T00440044 10050 20022 58000

Tid: 10:21 (18:21 UTC)


TAF: saknas

Aktuella väderrapporter och prognoser från 4000 flygplatser (METAR- och TAF-rapporter).

De tillgängliga stationerna syns som gula och röda prickar på kartan.

För musen över prickarna för att se namnen på stationerna.

Klicka sedan för att få väderrapporter och prognoser.

För att ändra kartan: Klicka på de gröna knapparna med ett svart kors på för att zooma in; den gröna knappen med ett streck på för att zooma ut; eller på de gröna pilarna för angränsande kartor.


METAR-TAF: